sensor_id;sensor_type;location;lat;lon;timestamp;pressure;altitude;pressure_sealevel;temperature;humidity
550;BME280;20066;48.764;9.176;2023-07-29T00:00:25;97780.00;;;20.47;76.76
550;BME280;20066;48.764;9.176;2023-07-29T00:02:54;97775.72;;;20.46;77.15
550;BME280;20066;48.764;9.176;2023-07-29T00:05:22;97766.78;;;20.36;78.05
550;BME280;20066;48.764;9.176;2023-07-29T00:07:50;97768.03;;;20.08;78.69
550;BME280;20066;48.764;9.176;2023-07-29T00:10:18;97757.94;;;20.60;76.64
550;BME280;20066;48.764;9.176;2023-07-29T00:12:47;97745.38;;;20.86;75.71
550;BME280;20066;48.764;9.176;2023-07-29T00:15:15;97754.41;;;21.01;74.91
550;BME280;20066;48.764;9.176;2023-07-29T00:17:43;97764.25;;;20.15;78.50
550;BME280;20066;48.764;9.176;2023-07-29T00:20:10;97762.19;;;20.52;76.57
550;BME280;20066;48.764;9.176;2023-07-29T00:22:38;97751.34;;;21.08;74.26
550;BME280;20066;48.764;9.176;2023-07-29T00:25:06;97745.41;;;21.10;74.62
550;BME280;20066;48.764;9.176;2023-07-29T00:27:34;97759.00;;;20.62;76.99
550;BME280;20066;48.764;9.176;2023-07-29T00:30:05;97757.56;;;21.09;75.38
550;BME280;20066;48.764;9.176;2023-07-29T00:32:33;97755.03;;;20.96;75.43
550;BME280;20066;48.764;9.176;2023-07-29T00:35:01;97764.16;;;20.42;77.57
550;BME280;20066;48.764;9.176;2023-07-29T00:37:29;97758.25;;;20.53;77.09
550;BME280;20066;48.764;9.176;2023-07-29T00:39:59;97745.53;;;20.83;75.71
550;BME280;20066;48.764;9.176;2023-07-29T00:42:26;97744.88;;;21.21;73.94
550;BME280;20066;48.764;9.176;2023-07-29T00:44:54;97745.75;;;21.03;74.67
550;BME280;20066;48.764;9.176;2023-07-29T00:47:25;97748.72;;;20.81;75.32
550;BME280;20066;48.764;9.176;2023-07-29T00:49:53;97733.69;;;20.86;75.66
550;BME280;20066;48.764;9.176;2023-07-29T00:52:20;97746.34;;;20.14;77.93
550;BME280;20066;48.764;9.176;2023-07-29T00:54:48;97743.91;;;20.16;79.40
550;BME280;20066;48.764;9.176;2023-07-29T00:57:16;97750.63;;;19.69;80.13
550;BME280;20066;48.764;9.176;2023-07-29T00:59:45;97745.16;;;19.87;80.11
550;BME280;20066;48.764;9.176;2023-07-29T01:02:13;97747.72;;;19.63;82.38
550;BME280;20066;48.764;9.176;2023-07-29T01:04:42;97744.78;;;20.31;79.16
550;BME280;20066;48.764;9.176;2023-07-29T01:07:15;97739.44;;;20.36;78.30
550;BME280;20066;48.764;9.176;2023-07-29T01:09:52;97733.75;;;20.07;80.44
550;BME280;20066;48.764;9.176;2023-07-29T01:12:28;97718.00;;;20.62;77.74
550;BME280;20066;48.764;9.176;2023-07-29T01:15:01;97726.22;;;20.44;78.26
550;BME280;20066;48.764;9.176;2023-07-29T01:17:40;97723.16;;;19.82;81.26
550;BME280;20066;48.764;9.176;2023-07-29T01:20:14;97729.41;;;20.43;78.29
550;BME280;20066;48.764;9.176;2023-07-29T01:22:42;97740.72;;;20.68;76.66
550;BME280;20066;48.764;9.176;2023-07-29T01:25:11;97731.81;;;20.59;77.63
550;BME280;20066;48.764;9.176;2023-07-29T01:27:41;97726.53;;;21.12;74.41
550;BME280;20066;48.764;9.176;2023-07-29T01:30:09;97731.00;;;21.00;75.26
550;BME280;20066;48.764;9.176;2023-07-29T01:32:43;97731.13;;;20.73;76.42
550;BME280;20066;48.764;9.176;2023-07-29T01:35:17;97732.63;;;20.32;79.35
550;BME280;20066;48.764;9.176;2023-07-29T01:37:49;97729.81;;;20.17;79.92
550;BME280;20066;48.764;9.176;2023-07-29T01:40:21;97729.69;;;20.63;78.01
550;BME280;20066;48.764;9.176;2023-07-29T01:42:50;97729.16;;;21.06;75.64
550;BME280;20066;48.764;9.176;2023-07-29T01:45:18;97726.75;;;20.99;75.43
550;BME280;20066;48.764;9.176;2023-07-29T01:47:46;97717.69;;;20.60;77.23
550;BME280;20066;48.764;9.176;2023-07-29T01:50:14;97722.75;;;20.86;75.77
550;BME280;20066;48.764;9.176;2023-07-29T01:52:42;97720.63;;;20.38;77.57
550;BME280;20066;48.764;9.176;2023-07-29T01:55:10;97719.13;;;20.47;77.08
550;BME280;20066;48.764;9.176;2023-07-29T01:57:39;97713.00;;;20.52;76.11
550;BME280;20066;48.764;9.176;2023-07-29T02:00:07;97712.09;;;20.55;76.46
550;BME280;20066;48.764;9.176;2023-07-29T02:02:36;97708.53;;;20.96;74.80
550;BME280;20066;48.764;9.176;2023-07-29T02:05:04;97701.38;;;20.33;77.66
550;BME280;20066;48.764;9.176;2023-07-29T02:07:32;97697.56;;;20.49;76.83
550;BME280;20066;48.764;9.176;2023-07-29T02:10:00;97697.28;;;20.28;77.59
550;BME280;20066;48.764;9.176;2023-07-29T02:12:27;97694.16;;;20.63;75.47
550;BME280;20066;48.764;9.176;2023-07-29T02:14:57;97692.53;;;20.38;77.15
550;BME280;20066;48.764;9.176;2023-07-29T02:17:24;97693.06;;;20.93;74.94
550;BME280;20066;48.764;9.176;2023-07-29T02:19:53;97688.03;;;20.68;76.24
550;BME280;20066;48.764;9.176;2023-07-29T02:22:21;97685.59;;;20.70;75.95
550;BME280;20066;48.764;9.176;2023-07-29T02:24:48;97687.34;;;20.07;78.32
550;BME280;20066;48.764;9.176;2023-07-29T02:27:16;97691.22;;;20.66;75.97
550;BME280;20066;48.764;9.176;2023-07-29T02:29:44;97690.19;;;20.64;76.81
550;BME280;20066;48.764;9.176;2023-07-29T02:32:13;97684.56;;;20.91;75.23
550;BME280;20066;48.764;9.176;2023-07-29T02:34:41;97688.88;;;20.83;75.39
550;BME280;20066;48.764;9.176;2023-07-29T02:37:09;97687.66;;;20.51;76.32
550;BME280;20066;48.764;9.176;2023-07-29T02:39:37;97696.97;;;20.26;77.65
550;BME280;20066;48.764;9.176;2023-07-29T02:42:05;97681.25;;;20.87;74.81
550;BME280;20066;48.764;9.176;2023-07-29T02:44:33;97676.41;;;21.06;73.83
550;BME280;20066;48.764;9.176;2023-07-29T02:47:01;97679.56;;;20.90;74.45
550;BME280;20066;48.764;9.176;2023-07-29T02:49:30;97674.38;;;20.92;74.57
550;BME280;20066;48.764;9.176;2023-07-29T02:51:59;97676.19;;;20.71;75.08
550;BME280;20066;48.764;9.176;2023-07-29T02:54:27;97672.09;;;20.66;75.83
550;BME280;20066;48.764;9.176;2023-07-29T02:56:55;97679.84;;;20.68;75.25
550;BME280;20066;48.764;9.176;2023-07-29T02:59:22;97686.44;;;20.85;74.63
550;BME280;20066;48.764;9.176;2023-07-29T03:01:51;97686.63;;;21.29;72.47
550;BME280;20066;48.764;9.176;2023-07-29T03:04:20;97678.81;;;21.37;71.76
550;BME280;20066;48.764;9.176;2023-07-29T03:06:49;97676.94;;;21.43;71.62
550;BME280;20066;48.764;9.176;2023-07-29T03:09:17;97670.28;;;21.11;72.57
550;BME280;20066;48.764;9.176;2023-07-29T03:11:44;97660.66;;;21.01;72.68
550;BME280;20066;48.764;9.176;2023-07-29T03:14:12;97659.66;;;21.13;72.29
550;BME280;20066;48.764;9.176;2023-07-29T03:16:40;97668.81;;;21.10;72.26
550;BME280;20066;48.764;9.176;2023-07-29T03:19:09;97660.34;;;20.75;73.19
550;BME280;20066;48.764;9.176;2023-07-29T03:21:37;97659.13;;;20.76;72.48
550;BME280;20066;48.764;9.176;2023-07-29T03:24:06;97648.94;;;20.53;73.60
550;BME280;20066;48.764;9.176;2023-07-29T03:26:34;97641.06;;;20.46;73.79
550;BME280;20066;48.764;9.176;2023-07-29T03:29:02;97644.94;;;20.63;73.69
550;BME280;20066;48.764;9.176;2023-07-29T03:31:30;97644.88;;;20.96;72.31
550;BME280;20066;48.764;9.176;2023-07-29T03:33:58;97635.19;;;20.95;71.77
550;BME280;20066;48.764;9.176;2023-07-29T03:36:26;97652.56;;;20.83;72.63
550;BME280;20066;48.764;9.176;2023-07-29T03:38:54;97651.34;;;20.84;72.47
550;BME280;20066;48.764;9.176;2023-07-29T03:41:23;97641.94;;;20.85;72.24
550;BME280;20066;48.764;9.176;2023-07-29T03:43:51;97647.78;;;21.16;70.85
550;BME280;20066;48.764;9.176;2023-07-29T03:46:19;97646.75;;;21.52;69.91
550;BME280;20066;48.764;9.176;2023-07-29T03:48:48;97647.16;;;20.73;72.45
550;BME280;20066;48.764;9.176;2023-07-29T03:51:16;97644.66;;;21.08;71.67
550;BME280;20066;48.764;9.176;2023-07-29T03:53:44;97649.75;;;21.39;69.90
550;BME280;20066;48.764;9.176;2023-07-29T03:56:12;97656.09;;;21.45;69.43
550;BME280;20066;48.764;9.176;2023-07-29T03:58:41;97666.06;;;21.34;70.08
550;BME280;20066;48.764;9.176;2023-07-29T04:01:10;97662.97;;;21.41;69.95
550;BME280;20066;48.764;9.176;2023-07-29T04:03:38;97656.41;;;21.00;72.17
550;BME280;20066;48.764;9.176;2023-07-29T04:06:05;97660.66;;;21.25;71.37
550;BME280;20066;48.764;9.176;2023-07-29T04:08:34;97667.00;;;21.31;72.02
550;BME280;20066;48.764;9.176;2023-07-29T04:11:02;97654.78;;;21.17;72.95
550;BME280;20066;48.764;9.176;2023-07-29T04:13:29;97663.19;;;20.15;76.33
550;BME280;20066;48.764;9.176;2023-07-29T04:15:59;97650.41;;;19.15;82.63
550;BME280;20066;48.764;9.176;2023-07-29T04:18:28;97645.38;;;19.04;84.00
550;BME280;20066;48.764;9.176;2023-07-29T04:20:56;97639.50;;;19.15;84.25
550;BME280;20066;48.764;9.176;2023-07-29T04:23:24;97651.59;;;19.87;80.38
550;BME280;20066;48.764;9.176;2023-07-29T04:25:51;97653.13;;;20.21;78.07
550;BME280;20066;48.764;9.176;2023-07-29T04:28:20;97656.47;;;19.55;80.24
550;BME280;20066;48.764;9.176;2023-07-29T04:30:48;97659.94;;;19.19;82.13
550;BME280;20066;48.764;9.176;2023-07-29T04:33:17;97669.41;;;18.78;85.01
550;BME280;20066;48.764;9.176;2023-07-29T04:35:45;97656.06;;;18.80;86.49
550;BME280;20066;48.764;9.176;2023-07-29T04:38:13;97659.50;;;19.30;84.10
550;BME280;20066;48.764;9.176;2023-07-29T04:40:40;97671.16;;;19.31;83.88
550;BME280;20066;48.764;9.176;2023-07-29T04:43:08;97672.38;;;19.84;81.78
550;BME280;20066;48.764;9.176;2023-07-29T04:45:36;97674.00;;;20.42;79.29
550;BME280;20066;48.764;9.176;2023-07-29T04:48:04;97685.53;;;20.46;78.43
550;BME280;20066;48.764;9.176;2023-07-29T04:50:33;97689.31;;;20.07;80.45
550;BME280;20066;48.764;9.176;2023-07-29T04:53:01;97685.03;;;20.57;79.38
550;BME280;20066;48.764;9.176;2023-07-29T04:55:29;97695.06;;;20.60;79.56
550;BME280;20066;48.764;9.176;2023-07-29T04:57:56;97710.94;;;20.28;80.49
550;BME280;20066;48.764;9.176;2023-07-29T05:00:26;97686.81;;;18.81;88.34
550;BME280;20066;48.764;9.176;2023-07-29T05:02:54;97686.28;;;18.86;88.84
550;BME280;20066;48.764;9.176;2023-07-29T05:05:21;97696.63;;;19.09;87.87
550;BME280;20066;48.764;9.176;2023-07-29T05:07:51;97692.81;;;18.58;90.32
550;BME280;20066;48.764;9.176;2023-07-29T05:10:18;97689.81;;;18.74;90.02
550;BME280;20066;48.764;9.176;2023-07-29T05:12:47;97676.06;;;18.77;90.04
550;BME280;20066;48.764;9.176;2023-07-29T05:15:15;97655.91;;;18.66;91.14
550;BME280;20066;48.764;9.176;2023-07-29T05:17:42;97660.53;;;18.96;88.27
550;BME280;20066;48.764;9.176;2023-07-29T05:20:10;97658.84;;;18.90;88.89
550;BME280;20066;48.764;9.176;2023-07-29T05:22:39;97652.09;;;19.40;87.99
550;BME280;20066;48.764;9.176;2023-07-29T05:25:08;97655.09;;;19.42;86.33
550;BME280;20066;48.764;9.176;2023-07-29T05:27:36;97640.41;;;19.21;87.39
550;BME280;20066;48.764;9.176;2023-07-29T05:30:05;97656.31;;;19.32;87.28
550;BME280;20066;48.764;9.176;2023-07-29T05:32:33;97674.34;;;19.75;84.89
550;BME280;20066;48.764;9.176;2023-07-29T05:35:01;97669.94;;;19.86;85.05
550;BME280;20066;48.764;9.176;2023-07-29T05:37:29;97660.56;;;19.78;84.94
550;BME280;20066;48.764;9.176;2023-07-29T05:39:58;97665.41;;;19.47;85.17
550;BME280;20066;48.764;9.176;2023-07-29T05:42:27;97662.16;;;20.03;82.70
550;BME280;20066;48.764;9.176;2023-07-29T05:44:55;97660.69;;;19.75;84.76
550;BME280;20066;48.764;9.176;2023-07-29T05:47:23;97653.94;;;20.12;83.66
550;BME280;20066;48.764;9.176;2023-07-29T05:49:50;97652.88;;;20.52;80.39
550;BME280;20066;48.764;9.176;2023-07-29T05:52:18;97662.44;;;20.05;82.46
550;BME280;20066;48.764;9.176;2023-07-29T05:54:46;97655.09;;;20.29;82.01
550;BME280;20066;48.764;9.176;2023-07-29T05:57:14;97649.47;;;20.90;80.83
550;BME280;20066;48.764;9.176;2023-07-29T05:59:43;97641.75;;;20.22;82.00
550;BME280;20066;48.764;9.176;2023-07-29T06:02:11;97638.94;;;20.97;79.34
550;BME280;20066;48.764;9.176;2023-07-29T06:04:39;97635.19;;;20.95;80.10
550;BME280;20066;48.764;9.176;2023-07-29T06:07:07;97626.28;;;20.61;80.78
550;BME280;20066;48.764;9.176;2023-07-29T06:09:34;97640.72;;;20.86;80.42
550;BME280;20066;48.764;9.176;2023-07-29T06:12:03;97639.56;;;21.16;79.95
550;BME280;20066;48.764;9.176;2023-07-29T06:14:30;97643.22;;;21.37;79.32
550;BME280;20066;48.764;9.176;2023-07-29T06:17:00;97642.50;;;21.66;77.74
550;BME280;20066;48.764;9.176;2023-07-29T06:19:27;97646.56;;;20.69;81.86
550;BME280;20066;48.764;9.176;2023-07-29T06:21:55;97653.22;;;21.25;79.03
550;BME280;20066;48.764;9.176;2023-07-29T06:24:23;97647.06;;;21.69;77.18
550;BME280;20066;48.764;9.176;2023-07-29T06:26:51;97643.44;;;20.62;81.14
550;BME280;20066;48.764;9.176;2023-07-29T06:29:19;97648.41;;;21.35;78.77
550;BME280;20066;48.764;9.176;2023-07-29T06:31:46;97652.81;;;21.71;76.22
550;BME280;20066;48.764;9.176;2023-07-29T06:34:15;97665.66;;;21.79;75.71
550;BME280;20066;48.764;9.176;2023-07-29T06:36:43;97658.59;;;21.73;73.85
550;BME280;20066;48.764;9.176;2023-07-29T06:39:11;97662.34;;;22.19;73.75
550;BME280;20066;48.764;9.176;2023-07-29T06:41:39;97665.66;;;21.65;75.10
550;BME280;20066;48.764;9.176;2023-07-29T06:44:07;97672.34;;;21.49;76.96
550;BME280;20066;48.764;9.176;2023-07-29T06:46:35;97673.00;;;21.73;75.36
550;BME280;20066;48.764;9.176;2023-07-29T06:49:04;97664.38;;;21.36;76.35
550;BME280;20066;48.764;9.176;2023-07-29T06:51:33;97670.19;;;21.29;77.85
550;BME280;20066;48.764;9.176;2023-07-29T06:54:02;97677.25;;;21.74;75.12
550;BME280;20066;48.764;9.176;2023-07-29T06:56:30;97681.38;;;21.17;78.46
550;BME280;20066;48.764;9.176;2023-07-29T06:58:59;97671.47;;;20.71;80.02
550;BME280;20066;48.764;9.176;2023-07-29T07:01:29;97682.53;;;21.01;79.93
550;BME280;20066;48.764;9.176;2023-07-29T07:03:57;97693.38;;;20.11;84.13
550;BME280;20066;48.764;9.176;2023-07-29T07:06:25;97709.31;;;20.04;85.13
550;BME280;20066;48.764;9.176;2023-07-29T07:08:55;97704.06;;;20.42;84.02
550;BME280;20066;48.764;9.176;2023-07-29T07:11:22;97715.72;;;20.00;87.07
550;BME280;20066;48.764;9.176;2023-07-29T07:13:50;97704.81;;;20.00;87.14
550;BME280;20066;48.764;9.176;2023-07-29T07:16:18;97714.91;;;20.18;87.33
550;BME280;20066;48.764;9.176;2023-07-29T07:18:47;97718.56;;;20.15;86.82
550;BME280;20066;48.764;9.176;2023-07-29T07:21:15;97718.31;;;19.40;90.36
550;BME280;20066;48.764;9.176;2023-07-29T07:23:42;97711.47;;;19.90;88.15
550;BME280;20066;48.764;9.176;2023-07-29T07:26:11;97707.63;;;20.66;84.21
550;BME280;20066;48.764;9.176;2023-07-29T07:28:39;97702.09;;;19.73;86.63
550;BME280;20066;48.764;9.176;2023-07-29T07:31:07;97707.41;;;19.86;85.83
550;BME280;20066;48.764;9.176;2023-07-29T07:33:35;97713.13;;;20.06;86.16
550;BME280;20066;48.764;9.176;2023-07-29T07:36:03;97718.69;;;20.21;85.13
550;BME280;20066;48.764;9.176;2023-07-29T07:38:31;97710.53;;;20.12;85.53
550;BME280;20066;48.764;9.176;2023-07-29T07:40:59;97699.91;;;20.05;85.84
550;BME280;20066;48.764;9.176;2023-07-29T07:43:28;97714.97;;;20.42;83.91
550;BME280;20066;48.764;9.176;2023-07-29T07:46:00;97711.03;;;20.43;83.50
550;BME280;20066;48.764;9.176;2023-07-29T07:48:28;97713.00;;;20.43;83.67
550;BME280;20066;48.764;9.176;2023-07-29T07:50:56;97721.59;;;20.17;84.56
550;BME280;20066;48.764;9.176;2023-07-29T07:53:24;97713.84;;;20.25;84.40
550;BME280;20066;48.764;9.176;2023-07-29T07:55:53;97707.19;;;20.17;85.31
550;BME280;20066;48.764;9.176;2023-07-29T07:58:21;97699.66;;;19.84;86.55
550;BME280;20066;48.764;9.176;2023-07-29T08:01:00;97694.66;;;20.43;83.88
550;BME280;20066;48.764;9.176;2023-07-29T08:03:29;97700.69;;;20.05;84.91
550;BME280;20066;48.764;9.176;2023-07-29T08:05:58;97699.19;;;20.55;82.31
550;BME280;20066;48.764;9.176;2023-07-29T08:08:26;97705.44;;;20.37;83.54
550;BME280;20066;48.764;9.176;2023-07-29T08:10:56;97714.00;;;20.21;84.09
550;BME280;20066;48.764;9.176;2023-07-29T08:13:25;97710.19;;;20.19;83.36
550;BME280;20066;48.764;9.176;2023-07-29T08:15:54;97712.69;;;20.59;81.79
550;BME280;20066;48.764;9.176;2023-07-29T08:18:22;97720.88;;;20.59;80.80
550;BME280;20066;48.764;9.176;2023-07-29T08:20:53;97729.72;;;20.87;79.13
550;BME280;20066;48.764;9.176;2023-07-29T08:23:24;97738.34;;;20.61;79.59
550;BME280;20066;48.764;9.176;2023-07-29T08:25:53;97725.34;;;21.04;78.43
550;BME280;20066;48.764;9.176;2023-07-29T08:28:23;97732.13;;;20.94;77.94
550;BME280;20066;48.764;9.176;2023-07-29T08:30:50;97737.41;;;21.21;77.62
550;BME280;20066;48.764;9.176;2023-07-29T08:33:20;97735.97;;;21.59;75.32
550;BME280;20066;48.764;9.176;2023-07-29T08:35:47;97731.06;;;20.91;77.82
550;BME280;20066;48.764;9.176;2023-07-29T08:38:15;97728.63;;;21.26;77.12
550;BME280;20066;48.764;9.176;2023-07-29T08:40:47;97723.38;;;21.52;76.87
550;BME280;20066;48.764;9.176;2023-07-29T08:43:19;97729.25;;;21.60;75.73
550;BME280;20066;48.764;9.176;2023-07-29T08:45:47;97724.63;;;21.66;75.72
550;BME280;20066;48.764;9.176;2023-07-29T08:48:22;97727.75;;;21.35;77.18
550;BME280;20066;48.764;9.176;2023-07-29T08:50:52;97730.25;;;21.71;76.34
550;BME280;20066;48.764;9.176;2023-07-29T08:53:21;97738.22;;;21.99;73.94
550;BME280;20066;48.764;9.176;2023-07-29T08:55:49;97732.03;;;22.92;72.67
550;BME280;20066;48.764;9.176;2023-07-29T08:58:17;97725.13;;;23.17;70.53
550;BME280;20066;48.764;9.176;2023-07-29T09:00:46;97734.59;;;23.76;66.71
550;BME280;20066;48.764;9.176;2023-07-29T09:03:15;97744.34;;;24.55;65.01
550;BME280;20066;48.764;9.176;2023-07-29T09:05:45;97740.09;;;23.16;69.07
550;BME280;20066;48.764;9.176;2023-07-29T09:08:13;97732.16;;;23.58;67.61
550;BME280;20066;48.764;9.176;2023-07-29T09:10:41;97731.88;;;23.82;67.63
550;BME280;20066;48.764;9.176;2023-07-29T09:13:09;97727.97;;;24.40;65.07
550;BME280;20066;48.764;9.176;2023-07-29T09:15:38;97724.59;;;24.25;65.42
550;BME280;20066;48.764;9.176;2023-07-29T09:18:10;97725.06;;;25.29;62.70
550;BME280;20066;48.764;9.176;2023-07-29T09:20:39;97717.44;;;25.07;61.90
550;BME280;20066;48.764;9.176;2023-07-29T09:23:09;97714.03;;;23.66;68.42
550;BME280;20066;48.764;9.176;2023-07-29T09:25:39;97703.84;;;23.32;69.75
550;BME280;20066;48.764;9.176;2023-07-29T09:28:09;97707.84;;;23.31;70.16
550;BME280;20066;48.764;9.176;2023-07-29T09:30:39;97711.81;;;22.75;71.89
550;BME280;20066;48.764;9.176;2023-07-29T09:33:07;97698.16;;;23.15;69.54
550;BME280;20066;48.764;9.176;2023-07-29T09:35:36;97707.50;;;24.15;66.16
550;BME280;20066;48.764;9.176;2023-07-29T09:38:05;97706.25;;;23.91;65.80
550;BME280;20066;48.764;9.176;2023-07-29T09:40:39;97715.19;;;23.60;67.33
550;BME280;20066;48.764;9.176;2023-07-29T09:43:09;97706.94;;;23.39;68.30
550;BME280;20066;48.764;9.176;2023-07-29T09:45:37;97724.34;;;23.77;66.32
550;BME280;20066;48.764;9.176;2023-07-29T09:48:05;97724.66;;;23.38;66.74
550;BME280;20066;48.764;9.176;2023-07-29T09:50:36;97726.38;;;24.02;64.79
550;BME280;20066;48.764;9.176;2023-07-29T09:53:07;97715.56;;;24.19;63.75
550;BME280;20066;48.764;9.176;2023-07-29T09:55:34;97716.50;;;24.42;62.80
550;BME280;20066;48.764;9.176;2023-07-29T09:58:04;97713.41;;;25.03;61.09
550;BME280;20066;48.764;9.176;2023-07-29T10:00:35;97706.41;;;25.02;61.27
550;BME280;20066;48.764;9.176;2023-07-29T10:03:06;97704.16;;;24.69;63.21
550;BME280;20066;48.764;9.176;2023-07-29T10:05:34;97710.88;;;25.47;61.33
550;BME280;20066;48.764;9.176;2023-07-29T10:08:03;97707.47;;;25.86;57.64
550;BME280;20066;48.764;9.176;2023-07-29T10:10:31;97700.19;;;25.77;57.53
550;BME280;20066;48.764;9.176;2023-07-29T10:13:00;97705.19;;;27.01;54.37
550;BME280;20066;48.764;9.176;2023-07-29T10:15:30;97693.19;;;27.56;53.50
550;BME280;20066;48.764;9.176;2023-07-29T10:17:59;97698.53;;;27.49;52.40
550;BME280;20066;48.764;9.176;2023-07-29T10:20:27;97691.25;;;27.46;53.06
550;BME280;20066;48.764;9.176;2023-07-29T10:22:59;97684.56;;;27.19;51.58
550;BME280;20066;48.764;9.176;2023-07-29T10:25:33;97692.34;;;27.73;49.99
550;BME280;20066;48.764;9.176;2023-07-29T10:28:06;97701.69;;;28.41;48.99
550;BME280;20066;48.764;9.176;2023-07-29T10:30:36;97708.25;;;26.87;50.49
550;BME280;20066;48.764;9.176;2023-07-29T10:33:05;97703.88;;;27.25;50.61
550;BME280;20066;48.764;9.176;2023-07-29T10:35:34;97709.97;;;27.01;50.22
550;BME280;20066;48.764;9.176;2023-07-29T10:38:02;97703.25;;;27.54;46.85
550;BME280;20066;48.764;9.176;2023-07-29T10:40:45;97708.53;;;26.33;50.50
550;BME280;20066;48.764;9.176;2023-07-29T10:43:19;97699.94;;;25.92;52.91
550;BME280;20066;48.764;9.176;2023-07-29T10:45:48;97716.56;;;26.31;50.07
550;BME280;20066;48.764;9.176;2023-07-29T10:48:42;97715.31;;;26.32;51.26
550;BME280;20066;48.764;9.176;2023-07-29T10:51:28;97710.28;;;26.64;50.37
550;BME280;20066;48.764;9.176;2023-07-29T10:54:01;97709.25;;;27.64;52.63
550;BME280;20066;48.764;9.176;2023-07-29T10:56:32;97708.13;;;27.37;53.13
550;BME280;20066;48.764;9.176;2023-07-29T10:59:31;97709.00;;;27.62;51.94
550;BME280;20066;48.764;9.176;2023-07-29T11:02:00;97699.97;;;26.98;53.65
550;BME280;20066;48.764;9.176;2023-07-29T11:04:29;97710.06;;;27.47;52.31
550;BME280;20066;48.764;9.176;2023-07-29T11:07:23;97706.59;;;28.23;49.48
550;BME280;20066;48.764;9.176;2023-07-29T11:09:55;97717.16;;;28.60;48.35
550;BME280;20066;48.764;9.176;2023-07-29T11:12:37;97718.03;;;27.62;48.67
550;BME280;20066;48.764;9.176;2023-07-29T11:15:13;97717.59;;;28.34;49.41
550;BME280;20066;48.764;9.176;2023-07-29T11:17:43;97718.41;;;28.29;46.96
550;BME280;20066;48.764;9.176;2023-07-29T11:20:12;97713.56;;;27.59;48.13
550;BME280;20066;48.764;9.176;2023-07-29T11:22:41;97721.34;;;27.61;47.97
550;BME280;20066;48.764;9.176;2023-07-29T11:25:11;97707.59;;;27.44;48.56
550;BME280;20066;48.764;9.176;2023-07-29T11:27:39;97710.09;;;27.94;47.84
550;BME280;20066;48.764;9.176;2023-07-29T11:30:09;97706.28;;;26.76;50.71
550;BME280;20066;48.764;9.176;2023-07-29T11:32:39;97710.41;;;27.16;50.86
550;BME280;20066;48.764;9.176;2023-07-29T11:35:10;97718.56;;;26.92;49.58
550;BME280;20066;48.764;9.176;2023-07-29T11:37:39;97708.25;;;26.87;50.35
550;BME280;20066;48.764;9.176;2023-07-29T11:40:08;97703.00;;;26.83;48.72
550;BME280;20066;48.764;9.176;2023-07-29T11:42:37;97696.91;;;27.07;47.93
550;BME280;20066;48.764;9.176;2023-07-29T11:45:07;97694.31;;;27.83;47.63
550;BME280;20066;48.764;9.176;2023-07-29T11:47:36;97702.31;;;28.28;46.41
550;BME280;20066;48.764;9.176;2023-07-29T11:50:05;97695.91;;;27.68;47.13
550;BME280;20066;48.764;9.176;2023-07-29T11:52:37;97683.41;;;28.32;46.00
550;BME280;20066;48.764;9.176;2023-07-29T11:55:05;97704.53;;;28.65;45.28
550;BME280;20066;48.764;9.176;2023-07-29T11:57:35;97707.66;;;30.81;43.52
550;BME280;20066;48.764;9.176;2023-07-29T12:00:05;97697.97;;;28.68;44.32
550;BME280;20066;48.764;9.176;2023-07-29T12:02:35;97698.44;;;29.39;43.69
550;BME280;20066;48.764;9.176;2023-07-29T12:05:04;97696.34;;;29.64;44.58
550;BME280;20066;48.764;9.176;2023-07-29T12:07:33;97684.94;;;29.86;43.95
550;BME280;20066;48.764;9.176;2023-07-29T12:10:03;97683.91;;;29.90;43.91
550;BME280;20066;48.764;9.176;2023-07-29T12:12:31;97676.25;;;28.96;43.66
550;BME280;20066;48.764;9.176;2023-07-29T12:14:59;97675.66;;;29.28;42.73
550;BME280;20066;48.764;9.176;2023-07-29T12:17:27;97674.91;;;29.27;43.69
550;BME280;20066;48.764;9.176;2023-07-29T12:19:55;97675.50;;;30.72;39.24
550;BME280;20066;48.764;9.176;2023-07-29T12:22:24;97682.38;;;30.07;39.02
550;BME280;20066;48.764;9.176;2023-07-29T12:24:52;97673.72;;;30.43;39.34
550;BME280;20066;48.764;9.176;2023-07-29T12:27:22;97683.63;;;30.83;39.56
550;BME280;20066;48.764;9.176;2023-07-29T12:29:52;97683.88;;;31.72;40.69
550;BME280;20066;48.764;9.176;2023-07-29T12:32:25;97684.63;;;33.05;35.69
550;BME280;20066;48.764;9.176;2023-07-29T12:34:53;97685.00;;;33.37;36.88
550;BME280;20066;48.764;9.176;2023-07-29T12:37:31;97675.25;;;31.49;37.72
550;BME280;20066;48.764;9.176;2023-07-29T12:39:59;97677.44;;;30.77;36.95
550;BME280;20066;48.764;9.176;2023-07-29T12:42:29;97665.78;;;31.99;36.37
550;BME280;20066;48.764;9.176;2023-07-29T12:44:58;97666.13;;;31.96;35.91
550;BME280;20066;48.764;9.176;2023-07-29T12:47:26;97667.56;;;31.42;35.37
550;BME280;20066;48.764;9.176;2023-07-29T12:52:22;97660.66;;;32.73;34.55
550;BME280;20066;48.764;9.176;2023-07-29T12:54:49;97665.47;;;31.22;35.06
550;BME280;20066;48.764;9.176;2023-07-29T12:57:19;97669.94;;;29.20;39.53
550;BME280;20066;48.764;9.176;2023-07-29T12:59:48;97669.22;;;28.41;40.07
550;BME280;20066;48.764;9.176;2023-07-29T13:02:16;97657.53;;;29.64;40.03
550;BME280;20066;48.764;9.176;2023-07-29T13:04:43;97661.19;;;29.72;38.47
550;BME280;20066;48.764;9.176;2023-07-29T13:07:12;97648.69;;;27.66;41.38
550;BME280;20066;48.764;9.176;2023-07-29T13:09:40;97665.16;;;28.48;39.66
550;BME280;20066;48.764;9.176;2023-07-29T13:12:08;97654.66;;;28.11;41.42
550;BME280;20066;48.764;9.176;2023-07-29T13:14:36;97662.81;;;27.98;41.84
550;BME280;20066;48.764;9.176;2023-07-29T13:17:06;97655.97;;;28.34;40.04
550;BME280;20066;48.764;9.176;2023-07-29T13:19:34;97656.06;;;28.53;40.41
550;BME280;20066;48.764;9.176;2023-07-29T13:22:02;97657.22;;;28.63;40.13
550;BME280;20066;48.764;9.176;2023-07-29T13:24:30;97658.34;;;28.19;40.63
550;BME280;20066;48.764;9.176;2023-07-29T13:26:59;97661.41;;;28.15;40.69
550;BME280;20066;48.764;9.176;2023-07-29T13:29:26;97663.16;;;28.48;41.57
550;BME280;20066;48.764;9.176;2023-07-29T13:31:54;97659.41;;;28.70;39.02
550;BME280;20066;48.764;9.176;2023-07-29T13:34:24;97661.72;;;28.66;39.87